Terminal Aerodrome Forecast
Issued by NWS

Home | Current Version | Previous Version | Text Only | Print | Product List | Glossary On
Versions: 1 2 3 4 5 6 7 8 9 10 11 12 13
000
FTUS41 KCAR 242320
TAFPQI
TAF
KPQI 242320Z 2500/2524 35004KT P6SM -RA OVC050
     FM250300 01004KT 3SM -RAPL OVC025
     FM250600 02004KT 3SM -FZRAPL OVC015
     FM250900 02003KT 2SM BR OVC015
     FM251300 VRB03KT 1SM -DZ BR OVC015
     FM252000 15009KT 1SM -DZ BR OVC007 WS020/18035KT=

USA.gov is the U.S. government's official web portal to all federal, state and local government web resources and services.